Time;durP1;ratioP1;P1;durP2;ratioP2;P2;SDS_P1;SDS_P2;PMS_P1;PMS_P2;Temp;Humidity;BMP_temperature;BMP_pressure;BME280_temperature;BME280_humidity;BME280_pressure;Samples;Min_cycle;Max_cycle;Signal;HPM_P1;HPM_P2
2023/03/14 00:00:27;;;;;;;4.90;2.20;;;11.90;99.90;;;;;;5047278;28;20033;-39
2023/03/14 00:02:53;;;;;;;4.18;2.20;;;11.90;99.90;;;;;;5047164;28;20029;-39
2023/03/14 00:05:19;;;;;;;4.88;2.03;;;11.90;99.90;;;;;;5046601;28;20017;-39
2023/03/14 00:07:45;;;;;;;5.47;2.58;;;11.90;99.90;;;;;;5047416;28;20454;-39
2023/03/14 00:10:13;;;;;;;2.65;1.95;;;11.90;99.90;;;;;;5046868;28;20017;-39
2023/03/14 00:12:40;;;;;;;8.05;2.55;;;11.90;99.90;;;;;;5046864;28;20021;-39
2023/03/14 00:15:06;;;;;;;6.88;1.98;;;11.90;99.90;;;;;;5046319;28;20506;-39
2023/03/14 00:17:33;;;;;;;5.82;2.00;;;11.90;99.90;;;;;;5045783;28;20051;-39
2023/03/14 00:20:07;;;;;;;2.55;2.05;;;11.80;99.90;;;;;;5047081;28;20514;-39
2023/03/14 00:22:34;;;;;;;3.20;2.00;;;11.90;99.90;;;;;;5047304;28;20053;-39
2023/03/14 00:24:59;;;;;;;2.95;2.00;;;11.80;99.90;;;;;;5046637;28;20100;-39
2023/03/14 00:27:25;;;;;;;5.18;2.00;;;11.80;99.90;;;;;;5047120;28;20718;-39
2023/03/14 00:29:51;;;;;;;2.38;1.90;;;11.80;99.90;;;;;;5046753;28;20032;-39
2023/03/14 00:32:16;;;;;;;4.32;2.33;;;11.80;99.90;;;;;;5047033;28;20017;-39
2023/03/14 00:34:42;;;;;;;4.55;2.25;;;11.80;99.90;;;;;;5046758;28;20032;-39
2023/03/14 00:37:08;;;;;;;4.28;2.10;;;11.80;99.90;;;;;;5046231;28;20295;-39
2023/03/14 00:39:33;;;;;;;3.25;2.33;;;11.70;99.90;;;;;;5045064;28;20374;-39
2023/03/14 00:41:59;;;;;;;3.85;2.38;;;11.70;99.90;;;;;;5046501;28;20032;-39
2023/03/14 00:44:24;;;;;;;3.97;1.98;;;11.60;99.90;;;;;;5046666;28;20506;-39
2023/03/14 00:46:50;;;;;;;3.65;2.03;;;11.60;99.90;;;;;;5046365;28;20119;-39
2023/03/14 00:49:16;;;;;;;4.80;2.17;;;11.70;99.90;;;;;;5046369;28;20382;-39
2023/03/14 00:51:41;;;;;;;3.28;2.00;;;11.70;99.90;;;;;;5046503;28;20414;-39
2023/03/14 00:54:07;;;;;;;3.20;2.00;;;11.80;99.90;;;;;;5046208;28;20398;-39
2023/03/14 00:56:32;;;;;;;5.20;1.85;;;11.70;99.90;;;;;;5046276;28;20029;-39
2023/03/14 00:58:58;;;;;;;4.32;2.30;;;11.70;99.90;;;;;;5046192;28;20021;-39
2023/03/14 01:01:24;;;;;;;6.10;2.20;;;11.70;99.90;;;;;;5046204;28;20021;-40
2023/03/14 01:03:54;;;;;;;4.03;1.98;;;11.70;99.90;;;;;;5044350;28;20040;-39
2023/03/14 01:06:25;;;;;;;4.95;2.60;;;11.70;99.90;;;;;;5043193;28;20037;-39
2023/03/14 01:08:52;;;;;;;11.02;2.33;;;11.70;99.90;;;;;;5046298;28;20029;-39
2023/03/14 01:11:26;;;;;;;6.72;2.50;;;11.70;99.90;;;;;;5046105;28;20415;-39
2023/03/14 01:13:52;;;;;;;5.15;2.10;;;11.70;99.90;;;;;;5045843;28;20021;-39
2023/03/14 01:16:19;;;;;;;3.58;2.22;;;11.80;99.90;;;;;;5045552;28;20087;-39
2023/03/14 01:18:47;;;;;;;5.03;2.22;;;11.70;99.90;;;;;;5045935;28;20081;-39
2023/03/14 01:21:15;;;;;;;5.47;2.22;;;11.70;99.90;;;;;;5046005;28;20053;-39
2023/03/14 01:23:42;;;;;;;3.80;2.10;;;11.70;99.90;;;;;;5043636;28;20028;-39
2023/03/14 01:26:12;;;;;;;3.92;2.15;;;11.60;99.90;;;;;;5045789;28;20087;-39
2023/03/14 01:28:38;;;;;;;3.70;2.13;;;11.70;99.90;;;;;;5046195;28;20348;-39
2023/03/14 01:31:06;;;;;;;5.00;2.13;;;11.70;99.90;;;;;;5046240;28;20028;-39
2023/03/14 01:33:31;;;;;;;5.28;2.78;;;11.70;99.90;;;;;;5045988;28;20009;-39
2023/03/14 01:35:57;;;;;;;5.57;2.10;;;11.70;99.90;;;;;;5045804;28;20078;-39
2023/03/14 01:38:23;;;;;;;4.13;2.10;;;11.70;99.90;;;;;;5046289;28;20024;-39
2023/03/14 01:40:48;;;;;;;3.67;2.05;;;11.70;99.90;;;;;;5046083;28;20060;-39
2023/03/14 01:43:16;;;;;;;6.10;2.40;;;11.70;99.90;;;;;;5045775;28;20047;-39
2023/03/14 01:46:04;;;;;;;5.93;2.78;;;11.70;99.90;;;;;;5045584;28;20582;-39
2023/03/14 01:48:36;;;;;;;4.10;1.90;;;11.70;99.90;;;;;;5042567;28;20099;-39
2023/03/14 01:51:04;;;;;;;5.85;2.83;;;11.70;99.90;;;;;;5047745;28;20013;-39
2023/03/14 01:53:29;;;;;;;6.15;2.42;;;11.70;99.90;;;;;;5049736;28;20043;-39
2023/03/14 01:55:58;;;;;;;3.85;1.63;;;11.70;99.90;;;;;;5047988;28;20490;-39
2023/03/14 01:58:27;;;;;;;4.38;1.85;;;11.80;99.90;;;;;;5046154;28;20025;-39
2023/03/14 02:00:53;;;;;;;4.90;2.13;;;11.80;99.90;;;;;;5049746;28;20033;-39
2023/03/14 02:03:21;;;;;;;3.10;1.83;;;11.70;99.90;;;;;;5047056;28;20028;-39
2023/03/14 02:05:48;;;;;;;5.20;1.60;;;11.70;99.90;;;;;;5049161;28;20036;-48
2023/03/14 02:08:17;;;;;;;3.65;1.85;;;11.70;99.90;;;;;;5050209;28;20032;-45
2023/03/14 02:10:46;;;;;;;2.77;1.20;;;11.80;99.90;;;;;;5047693;28;20033;-45
2023/03/14 02:13:14;;;;;;;1.30;1.13;;;11.80;99.90;;;;;;5049423;28;20017;-45
2023/03/14 02:15:40;;;;;;;3.38;1.55;;;11.80;99.90;;;;;;5046430;28;20421;-39
2023/03/14 02:18:06;;;;;;;3.53;1.95;;;11.80;99.90;;;;;;5049158;28;20056;-39
2023/03/14 02:20:58;;;;;;;3.83;1.60;;;11.70;99.90;;;;;;5049087;28;20025;-45
2023/03/14 02:23:41;;;;;;;4.15;1.48;;;11.70;99.90;;;;;;5048010;28;20025;-45
2023/03/14 02:26:34;;;;;;;2.85;1.50;;;11.70;99.90;;;;;;5047547;28;20035;-39
2023/03/14 02:28:59;;;;;;;4.72;1.40;;;11.70;99.90;;;;;;5047733;28;20025;-45
2023/03/14 02:31:25;;;;;;;2.42;1.45;;;11.80;99.90;;;;;;5047869;28;20028;-45
2023/03/14 02:33:51;;;;;;;5.53;1.27;;;11.80;99.90;;;;;;5049115;28;20410;-45
2023/03/14 02:36:20;;;;;;;2.42;1.30;;;11.70;99.90;;;;;;5048740;28;20110;-39
2023/03/14 02:38:55;;;;;;;1.83;1.15;;;11.70;99.90;;;;;;5047504;28;20025;-46
2023/03/14 02:41:21;;;;;;;1.45;1.10;;;11.70;99.90;;;;;;5046769;28;20029;-39
2023/03/14 02:43:47;;;;;;;5.15;1.30;;;11.70;99.90;;;;;;5048872;28;20040;-39
2023/03/14 02:46:16;;;;;;;3.47;1.35;;;11.60;99.90;;;;;;5048072;28;20112;-39
2023/03/14 02:48:56;;;;;;;4.93;1.20;;;11.60;99.90;;;;;;5045031;28;20051;-40
2023/03/14 02:51:23;;;;;;;2.35;1.38;;;11.60;99.90;;;;;;5047995;28;20021;-39
2023/03/14 02:53:49;;;;;;;3.20;1.58;;;11.70;99.90;;;;;;5045052;28;20057;-39
2023/03/14 02:56:14;;;;;;;6.78;1.27;;;11.60;99.90;;;;;;5048497;28;20052;-38
2023/03/14 02:58:40;;;;;;;3.58;1.27;;;11.70;99.90;;;;;;5048565;28;20032;-39
2023/03/14 03:01:06;;;;;;;2.85;1.50;;;11.70;99.90;;;;;;5047503;28;20436;-39
2023/03/14 03:03:32;;;;;;;4.05;1.70;;;11.70;99.90;;;;;;5048750;28;20740;-39
2023/03/14 03:05:58;;;;;;;7.93;1.83;;;11.70;99.90;;;;;;5048284;28;20550;-39
2023/03/14 03:08:28;;;;;;;5.82;1.63;;;11.70;99.90;;;;;;5048580;28;20333;-45
2023/03/14 03:10:54;;;;;;;6.73;1.60;;;11.60;99.90;;;;;;5047696;28;20075;-44
2023/03/14 03:13:19;;;;;;;7.63;2.00;;;11.60;99.90;;;;;;5048594;28;20021;-39
2023/03/14 03:15:45;;;;;;;3.38;1.50;;;11.60;99.90;;;;;;5048184;28;20529;-38
2023/03/14 03:18:11;;;;;;;4.90;1.50;;;11.60;99.90;;;;;;5048455;28;20028;-39
2023/03/14 03:20:37;;;;;;;3.53;1.80;;;11.50;99.90;;;;;;5048484;28;20083;-39
2023/03/14 03:23:04;;;;;;;5.55;2.38;;;11.50;99.90;;;;;;5048083;28;20044;-39
2023/03/14 03:25:29;;;;;;;5.15;1.85;;;11.50;99.90;;;;;;5047863;28;20067;-39
2023/03/14 03:27:55;;;;;;;7.72;1.95;;;11.50;99.90;;;;;;5048446;28;20037;-39
2023/03/14 03:30:20;;;;;;;6.68;1.90;;;11.50;99.90;;;;;;5048114;28;20021;-39
2023/03/14 03:32:46;;;;;;;8.52;2.30;;;11.50;99.90;;;;;;5048133;28;20033;-39
2023/03/14 03:35:12;;;;;;;5.32;1.88;;;11.50;99.90;;;;;;5047791;28;20017;-39
2023/03/14 03:37:38;;;;;;;4.18;2.22;;;11.50;99.90;;;;;;5048229;28;20531;-39
2023/03/14 03:40:05;;;;;;;4.63;2.08;;;11.50;99.90;;;;;;5046506;28;20040;-38
2023/03/14 03:42:32;;;;;;;4.97;2.10;;;11.50;99.90;;;;;;5047561;28;20112;-39
2023/03/14 03:44:59;;;;;;;8.25;2.35;;;11.40;99.90;;;;;;5047839;28;20435;-38
2023/03/14 03:47:25;;;;;;;7.55;3.13;;;11.50;99.90;;;;;;5048031;28;20085;-39
2023/03/14 03:49:50;;;;;;;5.20;2.05;;;11.40;99.90;;;;;;5047431;28;20025;-39
2023/03/14 03:52:16;;;;;;;7.60;2.50;;;11.40;99.90;;;;;;5048451;28;20559;-39
2023/03/14 03:54:41;;;;;;;6.15;2.03;;;11.30;99.90;;;;;;5048215;28;20025;-39
2023/03/14 03:57:07;;;;;;;5.32;2.20;;;11.30;99.90;;;;;;5048133;28;20052;-39
2023/03/14 03:59:32;;;;;;;4.85;1.85;;;11.40;99.90;;;;;;5048481;28;20062;-39
2023/03/14 04:01:58;;;;;;;6.07;2.35;;;11.30;99.90;;;;;;5038301;28;20018;-39
2023/03/14 04:04:23;;;;;;;6.07;2.22;;;11.30;99.90;;;;;;5028735;28;20029;-39
2023/03/14 04:06:49;;;;;;;5.07;2.10;;;11.20;99.90;;;;;;5027044;28;20033;-39
2023/03/14 04:09:15;;;;;;;5.05;1.95;;;11.20;99.90;;;;;;5028923;28;20022;-39
2023/03/14 04:11:41;;;;;;;4.43;2.10;;;11.20;99.90;;;;;;5028450;28;20396;-38
2023/03/14 04:14:07;;;;;;;4.90;1.90;;;11.20;99.90;;;;;;5028285;28;20025;-39
2023/03/14 04:16:32;;;;;;;8.27;2.00;;;11.20;99.90;;;;;;5028127;28;20033;-38
2023/03/14 04:18:58;;;;;;;4.72;2.20;;;11.20;99.90;;;;;;5028490;28;20091;-39
2023/03/14 04:21:24;;;;;;;9.07;2.00;;;11.20;99.90;;;;;;5028425;28;20136;-39
2023/03/14 04:23:50;;;;;;;5.82;2.00;;;11.10;99.90;;;;;;5028314;28;20415;-39
2023/03/14 04:26:16;;;;;;;6.43;1.90;;;11.10;99.90;;;;;;5027874;28;20383;-39
2023/03/14 04:28:42;;;;;;;5.28;1.92;;;11.10;99.90;;;;;;5028720;28;20478;-46
2023/03/14 04:31:25;;;;;;;6.10;2.50;;;11.10;99.90;;;;;;5027532;28;20056;-45
2023/03/14 04:33:51;;;;;;;4.63;1.90;;;11.00;99.90;;;;;;5028814;28;20028;-45
2023/03/14 04:36:16;;;;;;;7.95;2.13;;;11.10;99.90;;;;;;5032569;28;20104;-40
2023/03/14 04:38:42;;;;;;;6.25;2.85;;;11.00;99.90;;;;;;5047624;28;20490;-39
2023/03/14 04:41:07;;;;;;;5.85;2.03;;;11.00;99.90;;;;;;5047499;28;20106;-39
2023/03/14 04:43:33;;;;;;;6.45;2.15;;;11.00;99.90;;;;;;5047970;28;20371;-42
2023/03/14 04:45:59;;;;;;;7.03;1.90;;;11.00;99.90;;;;;;5047351;28;20029;-39
2023/03/14 04:48:25;;;;;;;6.25;1.58;;;11.00;99.90;;;;;;5047985;28;20104;-39
2023/03/14 04:50:51;;;;;;;5.10;1.80;;;10.90;99.90;;;;;;5048197;28;20036;-45
2023/03/14 04:53:17;;;;;;;5.07;1.70;;;11.00;99.90;;;;;;5048041;28;20025;-45
2023/03/14 04:55:51;;;;;;;5.05;2.28;;;11.00;99.90;;;;;;5046170;28;20115;-47
2023/03/14 04:58:17;;;;;;;6.72;2.00;;;10.90;99.90;;;;;;5048179;28;20044;-48
2023/03/14 05:00:43;;;;;;;7.75;1.73;;;10.90;99.90;;;;;;5047950;28;20037;-45
2023/03/14 05:03:08;;;;;;;2.28;1.13;;;10.90;99.90;;;;;;5047720;28;20107;-44
2023/03/14 05:05:34;;;;;;;2.42;1.30;;;11.00;99.90;;;;;;5047143;28;20064;-45
2023/03/14 05:07:59;;;;;;;5.95;1.55;;;11.00;99.90;;;;;;5047521;28;20017;-43
2023/03/14 05:10:25;;;;;;;2.70;1.58;;;10.90;99.90;;;;;;5046118;28;20021;-44
2023/03/14 05:12:51;;;;;;;1.65;1.25;;;10.90;99.90;;;;;;5047910;28;20047;-45
2023/03/14 05:15:16;;;;;;;5.88;1.48;;;10.80;99.90;;;;;;5047134;28;20083;-45
2023/03/14 05:17:42;;;;;;;4.30;1.45;;;10.80;99.90;;;;;;5048188;28;20051;-44
2023/03/14 05:20:08;;;;;;;6.32;1.63;;;10.80;99.90;;;;;;5047594;28;20470;-45
2023/03/14 05:22:34;;;;;;;3.78;1.75;;;10.80;99.90;;;;;;5046882;28;20048;-45
2023/03/14 05:25:00;;;;;;;3.80;1.20;;;10.80;99.90;;;;;;5047256;28;20123;-47
2023/03/14 05:27:25;;;;;;;3.30;1.20;;;10.80;99.90;;;;;;5047221;28;20025;-47
2023/03/14 05:29:51;;;;;;;3.13;1.20;;;10.80;99.90;;;;;;5047548;28;20028;-45
2023/03/14 05:32:17;;;;;;;4.05;1.40;;;10.70;99.90;;;;;;5047227;28;20116;-45
2023/03/14 05:34:42;;;;;;;4.30;1.20;;;10.60;99.90;;;;;;5047492;28;20017;-44
2023/03/14 05:37:08;;;;;;;2.70;1.27;;;10.60;99.90;;;;;;5047358;28;20078;-44
2023/03/14 05:39:33;;;;;;;4.95;1.25;;;10.60;99.90;;;;;;5047896;28;20037;-44
2023/03/14 05:41:59;;;;;;;2.95;1.20;;;10.50;99.90;;;;;;5047253;28;20041;-44
2023/03/14 05:44:24;;;;;;;8.10;1.60;;;10.50;99.90;;;;;;5047328;28;20493;-44
2023/03/14 05:46:50;;;;;;;3.58;1.20;;;10.50;99.90;;;;;;5047200;28;20026;-44
2023/03/14 05:49:15;;;;;;;2.05;1.05;;;10.50;99.90;;;;;;5047668;28;20025;-44
2023/03/14 05:51:41;;;;;;;2.30;1.20;;;10.50;99.90;;;;;;5047301;28;20060;-44
2023/03/14 05:54:06;;;;;;;3.08;1.20;;;10.50;99.90;;;;;;5047346;28;20025;-44
2023/03/14 05:56:33;;;;;;;2.13;1.08;;;10.40;99.90;;;;;;5046574;28;20107;-44
2023/03/14 05:59:02;;;;;;;3.65;1.20;;;10.40;99.90;;;;;;5047472;28;20573;-44
2023/03/14 06:01:27;;;;;;;2.88;1.38;;;10.40;99.90;;;;;;5047549;28;20025;-44
2023/03/14 06:03:53;;;;;;;7.18;1.63;;;10.50;99.90;;;;;;5046793;28;20060;-44
2023/03/14 06:06:18;;;;;;;5.03;1.17;;;10.50;99.90;;;;;;5046892;28;20028;-44
2023/03/14 06:08:44;;;;;;;3.10;1.10;;;10.40;99.90;;;;;;5047122;28;20502;-44
2023/03/14 06:11:09;;;;;;;4.15;1.33;;;10.40;99.90;;;;;;5047338;28;20044;-44
2023/03/14 06:13:35;;;;;;;3.70;1.20;;;10.50;99.90;;;;;;5047090;28;20122;-45
2023/03/14 06:16:00;;;;;;;7.07;1.30;;;10.50;99.90;;;;;;5046612;28;20017;-44
2023/03/14 06:18:26;;;;;;;2.72;1.33;;;10.40;99.90;;;;;;5046918;28;20032;-45
2023/03/14 06:20:55;;;;;;;2.75;0.60;;;10.40;99.90;;;;;;5046953;28;20434;-48
2023/03/14 06:23:21;;;;;;;3.72;0.80;;;10.40;99.90;;;;;;5042843;28;20024;-44
2023/03/14 06:25:47;;;;;;;3.13;0.90;;;10.40;99.90;;;;;;5045383;28;20495;-45
2023/03/14 06:28:12;;;;;;;4.28;1.23;;;10.40;99.90;;;;;;5047006;28;20029;-44
2023/03/14 06:30:38;;;;;;;1.52;0.70;;;10.50;99.90;;;;;;5044393;28;20071;-44
2023/03/14 06:33:03;;;;;;;5.75;1.60;;;10.50;99.90;;;;;;5044806;28;20029;-46
2023/03/14 06:35:29;;;;;;;1.13;0.75;;;10.50;99.90;;;;;;5049262;28;20025;-46
2023/03/14 06:37:54;;;;;;;4.45;1.33;;;10.60;99.90;;;;;;5050616;28;20291;-47
2023/03/14 06:40:20;;;;;;;4.43;1.50;;;10.60;99.90;;;;;;5050370;28;20043;-44
2023/03/14 06:42:46;;;;;;;4.10;1.30;;;10.60;99.90;;;;;;5048121;28;20459;-44
2023/03/14 06:45:12;;;;;;;4.70;1.25;;;10.60;99.90;;;;;;5048302;28;20033;-44
2023/03/14 06:47:38;;;;;;;4.60;0.93;;;10.60;99.90;;;;;;5048512;28;20025;-44
2023/03/14 06:50:07;;;;;;;7.35;1.67;;;10.50;99.90;;;;;;5048406;28;20536;-45
2023/03/14 06:52:33;;;;;;;2.95;1.27;;;10.60;99.90;;;;;;5048329;28;20037;-44
2023/03/14 06:54:59;;;;;;;3.33;0.80;;;10.60;99.90;;;;;;5048425;28;20495;-45
2023/03/14 06:57:25;;;;;;;5.32;1.15;;;10.60;99.90;;;;;;5049019;28;20036;-44
2023/03/14 06:59:50;;;;;;;3.60;1.13;;;10.70;99.90;;;;;;5049283;28;20032;-46
2023/03/14 07:02:16;;;;;;;4.20;1.23;;;10.60;99.90;;;;;;5049547;28;20021;-38
2023/03/14 07:04:41;;;;;;;3.03;1.00;;;10.70;99.90;;;;;;5049933;28;20017;-38
2023/03/14 07:07:07;;;;;;;7.78;2.45;;;10.80;99.90;;;;;;5049314;28;20057;-38
2023/03/14 07:09:34;;;;;;;2.10;0.70;;;10.80;99.90;;;;;;5047603;28;20032;-38
2023/03/14 07:12:00;;;;;;;3.22;0.90;;;10.90;99.90;;;;;;5049439;28;20198;-38
2023/03/14 07:14:25;;;;;;;5.07;1.65;;;11.00;99.90;;;;;;5049635;28;20025;-39
2023/03/14 07:16:51;;;;;;;2.90;0.85;;;11.20;99.90;;;;;;5049222;28;20028;-38
2023/03/14 07:19:17;;;;;;;1.50;0.70;;;11.30;99.90;;;;;;5048422;28;20079;-38
2023/03/14 07:21:42;;;;;;;2.35;1.00;;;11.60;99.90;;;;;;5048859;28;20072;-38
2023/03/14 07:24:08;;;;;;;4.00;1.35;;;11.70;99.90;;;;;;5047630;28;20033;-39
2023/03/14 07:26:33;;;;;;;3.58;1.10;;;11.70;99.90;;;;;;5048706;28;20029;-39
2023/03/14 07:28:59;;;;;;;4.60;1.60;;;11.80;99.90;;;;;;5046754;28;20182;-39
2023/03/14 07:31:25;;;;;;;4.40;1.15;;;11.70;99.90;;;;;;5048849;28;20040;-38
2023/03/14 07:33:51;;;;;;;4.28;1.10;;;11.50;99.90;;;;;;5048651;28;20033;-38
2023/03/14 07:36:17;;;;;;;2.95;1.05;;;11.50;99.90;;;;;;5048779;28;20040;-39
2023/03/14 07:38:42;;;;;;;3.17;0.90;;;11.50;99.90;;;;;;5047214;28;20028;-38
2023/03/14 07:41:08;;;;;;;2.78;1.00;;;11.50;99.90;;;;;;5048808;28;20039;-38
2023/03/14 07:43:34;;;;;;;4.35;1.05;;;11.50;99.90;;;;;;5048521;28;20029;-38
2023/03/14 07:45:59;;;;;;;3.83;1.30;;;11.70;99.90;;;;;;5048135;28;20033;-38
2023/03/14 07:48:26;;;;;;;5.47;1.17;;;11.80;99.90;;;;;;5048978;28;20120;-38
2023/03/14 07:50:53;;;;;;;3.83;1.15;;;11.90;99.90;;;;;;5048883;28;20040;-38
2023/03/14 07:53:19;;;;;;;3.75;1.10;;;11.80;99.90;;;;;;5048489;28;20059;-38
2023/03/14 07:55:45;;;;;;;2.90;0.90;;;11.90;99.90;;;;;;5048809;28;20100;-38
2023/03/14 07:58:11;;;;;;;3.20;0.90;;;11.90;99.90;;;;;;5048323;28;20313;-38
2023/03/14 08:00:37;;;;;;;3.78;1.60;;;12.00;99.90;;;;;;5047929;28;20104;-38
2023/03/14 08:03:03;;;;;;;3.58;1.27;;;12.20;99.90;;;;;;5048208;28;20394;-38
2023/03/14 08:05:28;;;;;;;4.20;1.42;;;12.30;99.90;;;;;;5047783;28;20036;-39
2023/03/14 08:07:54;;;;;;;9.57;1.63;;;12.30;99.90;;;;;;5048922;28;20021;-39
2023/03/14 08:10:23;;;;;;;5.40;1.00;;;12.30;99.90;;;;;;5049191;28;20017;-39
2023/03/14 08:12:55;;;;;;;7.32;1.75;;;12.50;99.90;;;;;;5049417;28;20079;-39
2023/03/14 08:15:22;;;;;;;4.70;1.10;;;12.60;99.90;;;;;;5049444;28;20108;-39
2023/03/14 08:17:50;;;;;;;4.90;1.63;;;12.70;99.90;;;;;;5049596;28;20112;-44
2023/03/14 08:20:17;;;;;;;4.22;1.40;;;12.60;99.90;;;;;;5047006;28;20025;-45
2023/03/14 08:22:43;;;;;;;5.30;1.42;;;12.50;99.90;;;;;;5049827;28;20059;-48
2023/03/14 08:25:09;;;;;;;9.80;1.40;;;12.50;99.90;;;;;;5050366;28;20075;-45
2023/03/14 08:27:37;;;;;;;2.63;0.88;;;12.40;99.90;;;;;;5050542;28;20068;-46
2023/03/14 08:30:04;;;;;;;5.25;1.65;;;12.40;99.90;;;;;;5049268;28;20029;-45
2023/03/14 08:32:29;;;;;;;4.95;1.40;;;12.30;99.90;;;;;;5048962;28;20028;-44
2023/03/14 08:34:55;;;;;;;9.32;1.27;;;12.50;99.90;;;;;;5049799;28;20086;-46
2023/03/14 08:37:21;;;;;;;4.75;1.23;;;12.60;99.90;;;;;;5050152;28;20116;-46
2023/03/14 08:39:46;;;;;;;6.15;1.17;;;12.80;99.90;;;;;;5050507;28;20056;-45
2023/03/14 08:42:12;;;;;;;6.50;1.23;;;13.00;99.90;;;;;;5050294;28;20664;-48
2023/03/14 08:44:38;;;;;;;2.47;1.20;;;13.10;99.90;;;;;;5050260;28;20044;-45
2023/03/14 08:47:03;;;;;;;3.35;1.30;;;13.20;99.90;;;;;;5049734;28;20632;-45
2023/03/14 08:49:29;;;;;;;5.68;1.98;;;12.90;99.90;;;;;;5049886;28;20029;-46
2023/03/14 08:51:54;;;;;;;2.22;1.00;;;12.80;99.90;;;;;;5049939;28;20029;-47
2023/03/14 08:54:20;;;;;;;4.53;1.42;;;12.80;99.90;;;;;;5049677;28;20013;-46
2023/03/14 08:56:45;;;;;;;6.85;1.45;;;12.90;99.90;;;;;;5047905;28;20025;-45
2023/03/14 08:59:11;;;;;;;6.63;1.30;;;13.00;99.90;;;;;;5048152;28;20451;-44
2023/03/14 09:01:37;;;;;;;5.03;1.42;;;13.00;99.90;;;;;;5048171;28;20039;-45
2023/03/14 09:04:02;;;;;;;4.35;1.30;;;13.00;99.90;;;;;;5048380;28;20029;-45
2023/03/14 09:06:28;;;;;;;4.82;1.20;;;12.90;99.90;;;;;;5047042;28;20454;-45
2023/03/14 09:08:53;;;;;;;4.28;2.00;;;13.10;99.90;;;;;;5048246;28;20037;-45
2023/03/14 09:11:19;;;;;;;4.75;1.40;;;13.00;99.90;;;;;;5048438;28;20108;-48
2023/03/14 09:13:44;;;;;;;5.90;1.17;;;12.90;99.90;;;;;;5048230;28;20052;-46
2023/03/14 09:16:10;;;;;;;3.47;1.20;;;13.00;99.90;;;;;;5048154;28;20033;-48
2023/03/14 09:18:36;;;;;;;4.80;1.40;;;12.90;99.90;;;;;;5048378;28;20199;-46
2023/03/14 09:21:02;;;;;;;4.32;1.55;;;13.00;99.90;;;;;;5048156;28;20033;-45
2023/03/14 09:23:28;;;;;;;4.20;1.70;;;12.90;99.90;;;;;;5048803;28;20440;-47
2023/03/14 09:26:00;;;;;;;5.93;1.52;;;12.90;99.90;;;;;;5047905;28;20025;-46
2023/03/14 09:28:26;;;;;;;8.38;1.58;;;12.80;99.90;;;;;;5030073;28;20032;-45
2023/03/14 09:30:52;;;;;;;5.53;1.58;;;12.70;99.90;;;;;;5048419;28;20315;-46
2023/03/14 09:33:18;;;;;;;4.10;1.30;;;12.60;99.90;;;;;;5048230;28;20021;-45
2023/03/14 09:35:43;;;;;;;6.13;1.65;;;12.50;99.90;;;;;;5047934;28;20422;-46
2023/03/14 09:38:09;;;;;;;4.97;1.52;;;12.40;99.90;;;;;;5048054;28;20349;-45
2023/03/14 09:40:36;;;;;;;4.00;1.27;;;12.30;99.90;;;;;;5048126;28;20086;-45
2023/03/14 09:43:02;;;;;;;7.47;1.33;;;12.30;99.90;;;;;;5048750;28;20029;-46
2023/03/14 09:45:31;;;;;;;2.78;1.38;;;12.40;99.90;;;;;;5047671;28;20029;-45
2023/03/14 09:47:58;;;;;;;4.65;1.83;;;12.80;99.90;;;;;;5047995;28;20280;-45
2023/03/14 09:50:24;;;;;;;5.07;1.20;;;14.20;99.90;;;;;;5047911;28;20112;-45
2023/03/14 09:52:56;;;;;;;2.92;1.10;;;15.10;99.90;;;;;;5046125;28;20032;-39
2023/03/14 09:55:22;;;;;;;1.17;0.70;;;15.80;99.90;;;;;;5046998;28;20033;-39
2023/03/14 09:58:01;;;;;;;3.72;1.02;;;15.90;99.90;;;;;;5041859;28;20111;-39
2023/03/14 10:00:30;;;;;;;3.13;1.40;;;16.80;99.90;;;;;;5046729;28;20111;-39
2023/03/14 10:03:34;;;;;;;2.65;1.20;;;17.40;99.90;;;;;;5050789;28;20024;-39
2023/03/14 10:06:00;;;;;;;2.28;1.00;;;17.80;99.90;;;;;;5044443;28;20571;-41
2023/03/14 10:08:25;;;;;;;3.05;1.10;;;17.60;99.90;;;;;;5047284;28;20114;-39
2023/03/14 10:10:51;;;;;;;4.35;1.10;;;17.00;99.90;;;;;;5051429;28;20103;-39
2023/03/14 10:13:16;;;;;;;2.05;1.00;;;17.30;99.90;;;;;;5051112;28;20025;-39
2023/03/14 10:16:00;;;;;;;5.00;1.02;;;17.20;99.90;;;;;;5051162;28;20028;-39
2023/03/14 10:18:28;;;;;;;1.98;0.82;;;17.40;99.90;;;;;;5050321;28;20044;-39
2023/03/14 10:21:23;;;;;;;11.88;1.48;;;18.40;98.70;;;;;;5050834;28;20509;-39
2023/03/14 10:23:48;;;;;;;1.73;0.93;;;19.30;96.60;;;;;;5043440;28;20083;-40
2023/03/14 10:26:17;;;;;;;1.65;0.73;;;21.20;94.60;;;;;;5052293;28;20345;-40
2023/03/14 10:28:46;;;;;;;1.85;0.70;;;21.80;87.00;;;;;;5054623;28;20025;-39
2023/03/14 10:31:12;;;;;;;4.10;1.05;;;22.20;86.50;;;;;;5051674;28;20036;-39
2023/03/14 10:33:38;;;;;;;0.30;0.30;;;22.10;81.30;;;;;;5055195;28;20021;-38
2023/03/14 10:36:21;;;;;;;1.05;0.50;;;21.80;80.80;;;;;;5049980;28;20087;-38
2023/03/14 10:38:47;;;;;;;0.70;0.52;;;21.70;81.30;;;;;;5049475;28;20056;-37
2023/03/14 10:41:27;;;;;;;1.48;0.50;;;20.50;82.90;;;;;;5050167;28;20033;-39
2023/03/14 10:44:01;;;;;;;1.55;0.57;;;19.40;86.40;;;;;;5043602;28;20021;-39
2023/03/14 10:46:30;;;;;;;1.77;0.60;;;18.70;87.90;;;;;;5049596;28;20041;-39
2023/03/14 10:48:56;;;;;;;0.57;0.45;;;18.00;90.20;;;;;;5050045;28;20044;-39
2023/03/14 10:51:27;;;;;;;0.77;0.52;;;16.90;93.40;;;;;;5049856;28;20017;-39
2023/03/14 10:54:12;;;;;;;1.05;0.57;;;16.70;94.30;;;;;;5045999;28;20362;-39
2023/03/14 10:56:38;;;;;;;2.35;0.63;;;16.30;94.60;;;;;;5053938;28;20044;-39
2023/03/14 10:59:10;;;;;;;2.33;0.73;;;15.90;96.10;;;;;;5053467;28;20064;-39
2023/03/14 11:02:13;;;;;;;0.80;0.45;;;15.30;98.10;;;;;;5051391;28;20091;-39
2023/03/14 11:05:08;;;;;;;0.68;0.50;;;14.70;99.90;;;;;;5050313;28;20021;-39
2023/03/14 11:07:41;;;;;;;0.70;0.70;;;14.30;99.90;;;;;;5048478;28;20047;-39
2023/03/14 11:10:18;;;;;;;0.55;0.40;;;14.10;99.90;;;;;;5049742;28;20914;-39
2023/03/14 11:13:09;;;;;;;2.05;0.60;;;15.50;99.90;;;;;;5048308;28;20024;-39
2023/03/14 11:15:39;;;;;;;0.50;0.50;;;16.10;99.90;;;;;;5051990;28;20039;-39
2023/03/14 11:18:23;;;;;;;1.17;0.45;;;15.60;99.90;;;;;;5055380;28;20016;-39
2023/03/14 11:21:22;;;;;;;1.95;0.40;;;15.90;99.90;;;;;;5055282;28;20025;-39
2023/03/14 11:24:17;;;;;;;0.45;0.25;;;16.10;99.90;;;;;;5039272;28;20025;-39
2023/03/14 11:27:07;;;;;;;0.60;0.40;;;16.00;99.90;;;;;;5057420;28;20025;-39
2023/03/14 11:29:40;;;;;;;0.45;0.45;;;15.80;99.90;;;;;;5049297;28;20029;-39
2023/03/14 11:32:39;;;;;;;1.35;0.55;;;15.60;99.90;;;;;;5049025;28;20025;-39
2023/03/14 11:35:23;;;;;;;0.80;0.40;;;15.20;99.90;;;;;;5047372;28;20024;-39
2023/03/14 11:37:58;;;;;;;0.50;0.30;;;15.10;99.90;;;;;;5048722;28;20020;-39
2023/03/14 11:40:27;;;;;;;1.95;0.70;;;14.90;99.90;;;;;;5049792;28;20044;-39
2023/03/14 11:43:06;;;;;;;1.55;0.45;;;14.60;99.90;;;;;;5056392;28;20055;-39
2023/03/14 11:45:43;;;;;;;0.75;0.30;;;14.20;99.90;;;;;;5049429;28;20024;-39
2023/03/14 11:48:16;;;;;;;0.52;0.52;;;13.90;99.90;;;;;;5048864;28;20123;-39
2023/03/14 11:50:44;;;;;;;1.02;0.82;;;13.90;99.90;;;;;;5048994;28;20040;-39
2023/03/14 11:53:15;;;;;;;1.23;0.50;;;13.80;99.90;;;;;;5048464;28;20066;-39
2023/03/14 11:55:42;;;;;;;0.82;0.82;;;13.50;99.90;;;;;;5052821;28;20096;-39
2023/03/14 11:58:30;;;;;;;1.98;1.00;;;13.80;99.90;;;;;;5052088;28;20864;-39
2023/03/14 12:01:01;;;;;;;1.85;0.55;;;14.30;99.90;;;;;;5048092;28;20778;-39
2023/03/14 12:03:50;;;;;;;0.85;0.50;;;14.60;99.90;;;;;;5031188;28;20051;-39
2023/03/14 12:06:33;;;;;;;0.40;0.40;;;14.90;99.90;;;;;;5045122;28;20029;-39
2023/03/14 12:09:01;;;;;;;0.98;0.50;;;14.80;99.90;;;;;;5046116;28;20009;-39
2023/03/14 12:11:40;;;;;;;1.02;0.40;;;14.40;99.90;;;;;;5046364;28;20028;-38
2023/03/14 12:14:29;;;;;;;0.85;0.65;;;14.10;99.90;;;;;;5047452;28;20505;-39
2023/03/14 12:16:58;;;;;;;2.28;0.80;;;13.70;99.90;;;;;;5041671;28;20103;-45
2023/03/14 12:19:23;;;;;;;1.10;0.50;;;13.50;99.90;;;;;;5048223;28;20078;-47
2023/03/14 12:21:54;;;;;;;0.73;0.60;;;13.20;99.90;;;;;;5047894;28;20395;-47
2023/03/14 12:24:29;;;;;;;2.30;0.68;;;13.00;99.90;;;;;;5045667;28;20109;-45
2023/03/14 12:26:58;;;;;;;0.60;0.60;;;12.90;99.90;;;;;;5047454;28;20021;-45
2023/03/14 12:29:24;;;;;;;0.68;0.60;;;12.70;99.90;;;;;;5047779;28;20029;-48
2023/03/14 12:32:21;;;;;;;2.08;0.77;;;12.40;99.90;;;;;;5047476;28;20027;-46
2023/03/14 12:34:46;;;;;;;1.80;0.68;;;11.50;99.90;;;;;;5047804;28;20009;-45
2023/03/14 12:37:22;;;;;;;0.60;0.40;;;10.80;99.90;;;;;;5047861;28;20497;-46
2023/03/14 12:40:20;;;;;;;3.72;0.60;;;10.20;99.90;;;;;;5046538;28;20088;-45
2023/03/14 12:42:59;;;;;;;0.98;0.30;;;9.70;99.90;;;;;;5046530;28;20072;-38
2023/03/14 12:45:49;;;;;;;2.00;0.63;;;9.10;99.90;;;;;;5045256;28;20286;-38
2023/03/14 12:48:25;;;;;;;2.03;0.30;;;8.70;99.90;;;;;;5046470;28;20426;-39
2023/03/14 12:50:55;;;;;;;0.55;0.55;;;8.40;99.90;;;;;;5046008;28;20378;-38
2023/03/14 12:54:05;;;;;;;1.65;0.90;;;8.20;99.90;;;;;;5046067;28;20021;-38
2023/03/14 12:56:58;;;;;;;1.25;0.70;;;8.20;99.90;;;;;;5031892;28;20445;-45